sensor_id;sensor_type;location;lat;lon;timestamp;temperature;humidity
66831;DHT22;53739;44.224;22.528;2023-02-21T00:01:50;281.80;6528.00
66831;DHT22;53739;44.224;22.528;2023-02-21T00:04:34;281.70;6528.00
66831;DHT22;53739;44.224;22.528;2023-02-21T00:07:19;256.90;6502.40
66831;DHT22;53739;44.224;22.528;2023-02-21T00:10:04;256.70;6502.40
66831;DHT22;53739;44.224;22.528;2023-02-21T00:12:49;256.10;6502.40
66831;DHT22;53739;44.224;22.528;2023-02-21T00:15:33;231.30;6502.40
66831;DHT22;53739;44.224;22.528;2023-02-21T00:18:17;231.00;6502.40
66831;DHT22;53739;44.224;22.528;2023-02-21T00:21:01;230.90;6502.40
66831;DHT22;53739;44.224;22.528;2023-02-21T00:23:46;230.60;6502.40
66831;DHT22;53739;44.224;22.528;2023-02-21T00:26:30;205.70;6502.40
66831;DHT22;53739;44.224;22.528;2023-02-21T00:29:14;205.60;6502.40
66831;DHT22;53739;44.224;22.528;2023-02-21T00:31:58;205.60;6502.40
66831;DHT22;53739;44.224;22.528;2023-02-21T00:34:42;205.50;6502.40
66831;DHT22;53739;44.224;22.528;2023-02-21T00:37:27;205.40;6502.40
66831;DHT22;53739;44.224;22.528;2023-02-21T00:40:13;205.30;6502.40
66831;DHT22;53739;44.224;22.528;2023-02-21T00:42:57;205.30;6502.40
66831;DHT22;53739;44.224;22.528;2023-02-21T00:45:42;205.20;6502.40
66831;DHT22;53739;44.224;22.528;2023-02-21T00:48:27;205.20;6502.40
66831;DHT22;53739;44.224;22.528;2023-02-21T00:51:11;205.20;6502.40
66831;DHT22;53739;44.224;22.528;2023-02-21T00:53:55;205.00;6502.40
66831;DHT22;53739;44.224;22.528;2023-02-21T00:56:39;205.00;6502.40
66831;DHT22;53739;44.224;22.528;2023-02-21T00:59:24;205.00;6502.40
66831;DHT22;53739;44.224;22.528;2023-02-21T01:02:08;204.90;6502.40
66831;DHT22;53739;44.224;22.528;2023-02-21T01:04:52;204.90;6502.40
66831;DHT22;53739;44.224;22.528;2023-02-21T01:07:36;204.80;6502.40
66831;DHT22;53739;44.224;22.528;2023-02-21T01:10:21;204.80;6502.40
66831;DHT22;53739;44.224;22.528;2023-02-21T01:13:05;180.10;6502.40
66831;DHT22;53739;44.224;22.528;2023-02-21T01:15:50;180.00;6502.40
66831;DHT22;53739;44.224;22.528;2023-02-21T01:18:34;180.00;6502.40
66831;DHT22;53739;44.224;22.528;2023-02-21T01:21:18;180.00;6502.40
66831;DHT22;53739;44.224;22.528;2023-02-21T01:24:04;179.90;6502.40
66831;DHT22;53739;44.224;22.528;2023-02-21T01:26:48;180.10;6502.40
66831;DHT22;53739;44.224;22.528;2023-02-21T01:29:32;205.50;6502.40
66831;DHT22;53739;44.224;22.528;2023-02-21T01:32:17;230.80;6502.40
66831;DHT22;53739;44.224;22.528;2023-02-21T01:35:01;231.30;6502.40
66831;DHT22;53739;44.224;22.528;2023-02-21T01:37:45;256.30;6502.40
66831;DHT22;53739;44.224;22.528;2023-02-21T01:40:29;256.50;6502.40
66831;DHT22;53739;44.224;22.528;2023-02-21T01:43:21;256.60;6502.40
66831;DHT22;53739;44.224;22.528;2023-02-21T01:46:17;256.70;6502.40
66831;DHT22;53739;44.224;22.528;2023-02-21T01:49:12;256.90;6502.40
66831;DHT22;53739;44.224;22.528;2023-02-21T01:51:59;281.60;6528.00
66831;DHT22;53739;44.224;22.528;2023-02-21T01:54:50;281.70;6528.00
66831;DHT22;53739;44.224;22.528;2023-02-21T01:57:36;281.70;6528.00
66831;DHT22;53739;44.224;22.528;2023-02-21T02:00:21;281.70;6528.00
66831;DHT22;53739;44.224;22.528;2023-02-21T02:03:08;281.80;6528.00
66831;DHT22;53739;44.224;22.528;2023-02-21T02:06:06;282.00;6528.00
66831;DHT22;53739;44.224;22.528;2023-02-21T02:08:50;281.90;6528.00
66831;DHT22;53739;44.224;22.528;2023-02-21T02:21:15;282.00;6528.00
66831;DHT22;53739;44.224;22.528;2023-02-21T02:29:50;282.10;6528.00
66831;DHT22;53739;44.224;22.528;2023-02-21T02:35:34;282.10;6528.00
66831;DHT22;53739;44.224;22.528;2023-02-21T02:38:06;282.10;6528.00
66831;DHT22;53739;44.224;22.528;2023-02-21T02:43:31;282.10;6528.00
66831;DHT22;53739;44.224;22.528;2023-02-21T02:46:19;282.00;6528.00
66831;DHT22;53739;44.224;22.528;2023-02-21T02:48:52;282.00;6528.00
66831;DHT22;53739;44.224;22.528;2023-02-21T02:51:20;281.90;6528.00
66831;DHT22;53739;44.224;22.528;2023-02-21T02:53:47;282.00;6528.00
66831;DHT22;53739;44.224;22.528;2023-02-21T02:56:15;282.00;6528.00
66831;DHT22;53739;44.224;22.528;2023-02-21T03:04:29;281.90;6528.00
66831;DHT22;53739;44.224;22.528;2023-02-21T03:09:35;281.80;6528.00
66831;DHT22;53739;44.224;22.528;2023-02-21T03:12:22;281.80;6528.00
66831;DHT22;53739;44.224;22.528;2023-02-21T03:14:59;281.80;6528.00
66831;DHT22;53739;44.224;22.528;2023-02-21T03:17:27;281.70;6528.00
66831;DHT22;53739;44.224;22.528;2023-02-21T03:19:56;281.80;6528.00
66831;DHT22;53739;44.224;22.528;2023-02-21T03:22:26;281.80;6528.00
66831;DHT22;53739;44.224;22.528;2023-02-21T03:24:57;281.80;6528.00
66831;DHT22;53739;44.224;22.528;2023-02-21T03:27:26;281.80;6528.00
66831;DHT22;53739;44.224;22.528;2023-02-21T03:29:54;281.80;6528.00
66831;DHT22;53739;44.224;22.528;2023-02-21T03:32:29;281.90;6528.00
66831;DHT22;53739;44.224;22.528;2023-02-21T03:34:55;281.90;6528.00
66831;DHT22;53739;44.224;22.528;2023-02-21T03:37:42;282.00;6528.00
66831;DHT22;53739;44.224;22.528;2023-02-21T03:40:18;282.00;6528.00
66831;DHT22;53739;44.224;22.528;2023-02-21T03:42:44;282.00;6528.00
66831;DHT22;53739;44.224;22.528;2023-02-21T03:45:10;281.90;6528.00
66831;DHT22;53739;44.224;22.528;2023-02-21T03:47:36;282.00;6528.00
66831;DHT22;53739;44.224;22.528;2023-02-21T03:50:02;281.90;6528.00
66831;DHT22;53739;44.224;22.528;2023-02-21T03:52:29;281.90;6528.00
66831;DHT22;53739;44.224;22.528;2023-02-21T03:54:55;281.80;6528.00
66831;DHT22;53739;44.224;22.528;2023-02-21T03:57:21;281.80;6528.00
66831;DHT22;53739;44.224;22.528;2023-02-21T03:59:49;281.80;6528.00
66831;DHT22;53739;44.224;22.528;2023-02-21T04:02:15;281.80;6528.00
66831;DHT22;53739;44.224;22.528;2023-02-21T04:04:40;281.80;6528.00
66831;DHT22;53739;44.224;22.528;2023-02-21T04:07:06;281.80;6528.00
66831;DHT22;53739;44.224;22.528;2023-02-21T04:09:32;281.80;6528.00
66831;DHT22;53739;44.224;22.528;2023-02-21T04:11:58;281.80;6528.00
66831;DHT22;53739;44.224;22.528;2023-02-21T04:14:24;281.80;6528.00
66831;DHT22;53739;44.224;22.528;2023-02-21T04:16:50;281.80;6528.00
66831;DHT22;53739;44.224;22.528;2023-02-21T04:19:16;281.80;6528.00
66831;DHT22;53739;44.224;22.528;2023-02-21T04:21:42;281.70;6528.00
66831;DHT22;53739;44.224;22.528;2023-02-21T04:24:08;281.70;6528.00
66831;DHT22;53739;44.224;22.528;2023-02-21T04:26:33;281.80;6528.00
66831;DHT22;53739;44.224;22.528;2023-02-21T04:29:00;281.80;6528.00
66831;DHT22;53739;44.224;22.528;2023-02-21T04:31:26;281.70;6528.00
66831;DHT22;53739;44.224;22.528;2023-02-21T04:33:52;281.70;6528.00
66831;DHT22;53739;44.224;22.528;2023-02-21T04:36:17;281.70;6528.00
66831;DHT22;53739;44.224;22.528;2023-02-21T04:38:43;281.70;6528.00
66831;DHT22;53739;44.224;22.528;2023-02-21T04:41:09;281.60;6528.00
66831;DHT22;53739;44.224;22.528;2023-02-21T04:43:35;281.60;6528.00
66831;DHT22;53739;44.224;22.528;2023-02-21T04:46:01;281.60;6528.00
66831;DHT22;53739;44.224;22.528;2023-02-21T04:48:26;256.90;6502.40
66831;DHT22;53739;44.224;22.528;2023-02-21T04:50:52;256.90;6502.40
66831;DHT22;53739;44.224;22.528;2023-02-21T04:53:18;256.80;6502.40
66831;DHT22;53739;44.224;22.528;2023-02-21T04:55:44;256.70;6502.40
66831;DHT22;53739;44.224;22.528;2023-02-21T04:58:09;256.60;6502.40
66831;DHT22;53739;44.224;22.528;2023-02-21T05:00:35;256.50;6502.40
66831;DHT22;53739;44.224;22.528;2023-02-21T05:03:01;256.50;6502.40
66831;DHT22;53739;44.224;22.528;2023-02-21T05:05:26;256.40;6502.40
66831;DHT22;53739;44.224;22.528;2023-02-21T05:07:52;256.30;6502.40
66831;DHT22;53739;44.224;22.528;2023-02-21T05:10:18;256.30;6502.40
66831;DHT22;53739;44.224;22.528;2023-02-21T05:12:44;256.30;6502.40
66831;DHT22;53739;44.224;22.528;2023-02-21T05:15:11;256.20;6502.40
66831;DHT22;53739;44.224;22.528;2023-02-21T05:17:37;256.20;6502.40
66831;DHT22;53739;44.224;22.528;2023-02-21T05:20:04;256.10;6502.40
66831;DHT22;53739;44.224;22.528;2023-02-21T05:22:39;256.10;6502.40
66831;DHT22;53739;44.224;22.528;2023-02-21T05:25:21;256.00;6502.40
66831;DHT22;53739;44.224;22.528;2023-02-21T05:27:48;256.00;6502.40
66831;DHT22;53739;44.224;22.528;2023-02-21T05:30:17;231.30;6502.40
66831;DHT22;53739;44.224;22.528;2023-02-21T05:32:43;231.30;6502.40
66831;DHT22;53739;44.224;22.528;2023-02-21T05:35:09;231.30;6502.40
66831;DHT22;53739;44.224;22.528;2023-02-21T05:37:35;231.30;6502.40
66831;DHT22;53739;44.224;22.528;2023-02-21T05:40:02;231.30;6502.40
66831;DHT22;53739;44.224;22.528;2023-02-21T05:42:30;231.20;6502.40
66831;DHT22;53739;44.224;22.528;2023-02-21T05:44:55;231.20;6502.40
66831;DHT22;53739;44.224;22.528;2023-02-21T05:47:21;231.20;6502.40
66831;DHT22;53739;44.224;22.528;2023-02-21T05:49:47;231.20;6502.40
66831;DHT22;53739;44.224;22.528;2023-02-21T05:52:15;231.20;6502.40
66831;DHT22;53739;44.224;22.528;2023-02-21T05:54:41;231.20;6502.40
66831;DHT22;53739;44.224;22.528;2023-02-21T05:57:07;231.30;6502.40
66831;DHT22;53739;44.224;22.528;2023-02-21T05:59:33;231.30;6502.40
66831;DHT22;53739;44.224;22.528;2023-02-21T06:01:58;231.30;6502.40
66831;DHT22;53739;44.224;22.528;2023-02-21T06:04:24;231.30;6502.40
66831;DHT22;53739;44.224;22.528;2023-02-21T06:06:50;256.00;6502.40
66831;DHT22;53739;44.224;22.528;2023-02-21T06:09:17;231.30;6502.40
66831;DHT22;53739;44.224;22.528;2023-02-21T06:11:43;256.00;6502.40
66831;DHT22;53739;44.224;22.528;2023-02-21T06:14:16;256.00;6502.40
66831;DHT22;53739;44.224;22.528;2023-02-21T06:16:42;256.00;6502.40
66831;DHT22;53739;44.224;22.528;2023-02-21T06:19:09;256.10;6502.40
66831;DHT22;53739;44.224;22.528;2023-02-21T06:21:35;256.20;6502.40
66831;DHT22;53739;44.224;22.528;2023-02-21T06:24:02;256.30;6502.40
66831;DHT22;53739;44.224;22.528;2023-02-21T06:26:28;256.30;6502.40
66831;DHT22;53739;44.224;22.528;2023-02-21T06:28:53;256.40;6502.40
66831;DHT22;53739;44.224;22.528;2023-02-21T06:31:20;256.50;6502.40
66831;DHT22;53739;44.224;22.528;2023-02-21T06:33:47;256.60;6502.40
66831;DHT22;53739;44.224;22.528;2023-02-21T06:36:19;256.60;6502.40
66831;DHT22;53739;44.224;22.528;2023-02-21T06:38:50;256.80;6502.40
66831;DHT22;53739;44.224;22.528;2023-02-21T06:41:25;256.90;6502.40
66831;DHT22;53739;44.224;22.528;2023-02-21T06:43:52;256.90;6502.40
66831;DHT22;53739;44.224;22.528;2023-02-21T06:46:20;281.60;6528.00
66831;DHT22;53739;44.224;22.528;2023-02-21T06:48:47;256.90;6502.40
66831;DHT22;53739;44.224;22.528;2023-02-21T06:51:12;281.60;6528.00
66831;DHT22;53739;44.224;22.528;2023-02-21T06:53:40;281.60;6528.00
66831;DHT22;53739;44.224;22.528;2023-02-21T06:56:06;281.70;6528.00
66831;DHT22;53739;44.224;22.528;2023-02-21T06:58:32;281.80;6528.00
66831;DHT22;53739;44.224;22.528;2023-02-21T07:00:58;282.10;6528.00
66831;DHT22;53739;44.224;22.528;2023-02-21T07:03:23;282.40;6528.00
66831;DHT22;53739;44.224;22.528;2023-02-21T07:05:49;307.30;128.00
66831;DHT22;53739;44.224;22.528;2023-02-21T07:08:15;307.70;128.00
66831;DHT22;53739;44.224;22.528;2023-02-21T07:10:40;308.10;128.00
66831;DHT22;53739;44.224;22.528;2023-02-21T07:13:06;333.10;128.00
66831;DHT22;53739;44.224;22.528;2023-02-21T07:15:32;333.40;128.00
66831;DHT22;53739;44.224;22.528;2023-02-21T07:17:58;358.40;409.60
66831;DHT22;53739;44.224;22.528;2023-02-21T07:20:23;358.70;384.00
66831;DHT22;53739;44.224;22.528;2023-02-21T07:22:49;359.00;307.20
66831;DHT22;53739;44.224;22.528;2023-02-21T07:25:17;359.30;128.00
66831;DHT22;53739;44.224;22.528;2023-02-21T07:27:45;384.60;128.00
66831;DHT22;53739;44.224;22.528;2023-02-21T07:30:11;409.70;128.00
66831;DHT22;53739;44.224;22.528;2023-02-21T07:32:36;410.10;128.00
66831;DHT22;53739;44.224;22.528;2023-02-21T07:35:03;410.20;128.00
66831;DHT22;53739;44.224;22.528;2023-02-21T07:37:29;410.50;128.00
66831;DHT22;53739;44.224;22.528;2023-02-21T07:39:54;435.20;128.00
66831;DHT22;53739;44.224;22.528;2023-02-21T07:42:20;435.50;128.00
66831;DHT22;53739;44.224;22.528;2023-02-21T07:44:46;435.50;128.00
66831;DHT22;53739;44.224;22.528;2023-02-21T07:47:12;435.80;128.00
66831;DHT22;53739;44.224;22.528;2023-02-21T07:49:39;435.90;179.20
66831;DHT22;53739;44.224;22.528;2023-02-21T07:52:06;435.90;179.20
66831;DHT22;53739;44.224;22.528;2023-02-21T07:54:32;460.80;204.80
66831;DHT22;53739;44.224;22.528;2023-02-21T07:56:58;461.00;128.00
66831;DHT22;53739;44.224;22.528;2023-02-21T07:59:24;461.10;128.00
66831;DHT22;53739;44.224;22.528;2023-02-21T08:01:49;461.20;128.00
66831;DHT22;53739;44.224;22.528;2023-02-21T08:04:16;461.20;128.00
66831;DHT22;53739;44.224;22.528;2023-02-21T08:06:46;461.10;128.00
66831;DHT22;53739;44.224;22.528;2023-02-21T08:09:12;460.80;128.00
66831;DHT22;53739;44.224;22.528;2023-02-21T08:11:38;460.90;128.00
66831;DHT22;53739;44.224;22.528;2023-02-21T08:14:05;461.00;128.00
66831;DHT22;53739;44.224;22.528;2023-02-21T08:16:31;461.00;128.00
66831;DHT22;53739;44.224;22.528;2023-02-21T08:18:57;461.10;128.00
66831;DHT22;53739;44.224;22.528;2023-02-21T08:21:22;460.90;128.00
66831;DHT22;53739;44.224;22.528;2023-02-21T08:23:51;436.10;128.00
66831;DHT22;53739;44.224;22.528;2023-02-21T08:26:18;435.90;128.00
66831;DHT22;53739;44.224;22.528;2023-02-21T08:28:44;436.10;128.00
66831;DHT22;53739;44.224;22.528;2023-02-21T08:31:10;436.10;128.00
66831;DHT22;53739;44.224;22.528;2023-02-21T08:33:36;460.80;128.00
66831;DHT22;53739;44.224;22.528;2023-02-21T08:36:02;460.80;128.00
66831;DHT22;53739;44.224;22.528;2023-02-21T08:38:27;460.90;128.00
66831;DHT22;53739;44.224;22.528;2023-02-21T08:40:53;461.00;128.00
66831;DHT22;53739;44.224;22.528;2023-02-21T08:43:19;460.90;128.00
66831;DHT22;53739;44.224;22.528;2023-02-21T08:45:44;460.90;128.00
66831;DHT22;53739;44.224;22.528;2023-02-21T08:48:10;460.90;128.00
66831;DHT22;53739;44.224;22.528;2023-02-21T08:50:36;461.00;128.00
66831;DHT22;53739;44.224;22.528;2023-02-21T08:53:02;460.80;128.00
66831;DHT22;53739;44.224;22.528;2023-02-21T08:55:28;461.00;128.00
66831;DHT22;53739;44.224;22.528;2023-02-21T08:57:54;461.00;128.00
66831;DHT22;53739;44.224;22.528;2023-02-21T09:00:22;461.00;128.00
66831;DHT22;53739;44.224;22.528;2023-02-21T09:02:51;461.00;128.00
66831;DHT22;53739;44.224;22.528;2023-02-21T09:05:20;461.00;128.00
66831;DHT22;53739;44.224;22.528;2023-02-21T09:07:49;461.20;128.00
66831;DHT22;53739;44.224;22.528;2023-02-21T09:10:16;461.20;128.00
66831;DHT22;53739;44.224;22.528;2023-02-21T09:12:42;461.50;128.00
66831;DHT22;53739;44.224;22.528;2023-02-21T09:15:08;461.60;128.00
66831;DHT22;53739;44.224;22.528;2023-02-21T09:17:34;461.60;128.00
66831;DHT22;53739;44.224;22.528;2023-02-21T09:20:03;461.70;128.00
66831;DHT22;53739;44.224;22.528;2023-02-21T09:22:31;461.60;128.00
66831;DHT22;53739;44.224;22.528;2023-02-21T09:24:58;486.40;128.00
66831;DHT22;53739;44.224;22.528;2023-02-21T09:27:24;486.70;128.00
66831;DHT22;53739;44.224;22.528;2023-02-21T09:30:22;486.80;128.00
66831;DHT22;53739;44.224;22.528;2023-02-21T09:32:49;486.80;128.00
66831;DHT22;53739;44.224;22.528;2023-02-21T09:35:15;487.00;128.00
66831;DHT22;53739;44.224;22.528;2023-02-21T09:37:42;486.90;128.00
66831;DHT22;53739;44.224;22.528;2023-02-21T09:43:02;486.70;128.00
66831;DHT22;53739;44.224;22.528;2023-02-21T09:45:33;486.90;128.00
66831;DHT22;53739;44.224;22.528;2023-02-21T09:48:10;487.20;128.00
66831;DHT22;53739;44.224;22.528;2023-02-21T09:50:45;512.10;128.00
66831;DHT22;53739;44.224;22.528;2023-02-21T09:53:25;512.00;128.00
66831;DHT22;53739;44.224;22.528;2023-02-21T09:55:54;487.20;128.00
66831;DHT22;53739;44.224;22.528;2023-02-21T09:58:21;487.30;128.00
66831;DHT22;53739;44.224;22.528;2023-02-21T10:00:47;512.40;128.00
66831;DHT22;53739;44.224;22.528;2023-02-21T10:05:53;512.40;128.00
66831;DHT22;53739;44.224;22.528;2023-02-21T10:08:29;512.90;128.00
66831;DHT22;53739;44.224;22.528;2023-02-21T10:17:53;512.90;128.00
66831;DHT22;53739;44.224;22.528;2023-02-21T10:20:02;512.90;128.00
66831;DHT22;53739;44.224;22.528;2023-02-21T10:22:36;512.60;128.00
66831;DHT22;53739;44.224;22.528;2023-02-21T10:25:27;512.40;128.00
66831;DHT22;53739;44.224;22.528;2023-02-21T10:27:54;512.50;128.00
66831;DHT22;53739;44.224;22.528;2023-02-21T10:30:31;512.50;128.00
66831;DHT22;53739;44.224;22.528;2023-02-21T10:32:57;512.30;128.00
66831;DHT22;53739;44.224;22.528;2023-02-21T10:35:23;512.10;128.00
66831;DHT22;53739;44.224;22.528;2023-02-21T10:37:53;512.30;128.00
66831;DHT22;53739;44.224;22.528;2023-02-21T10:45:58;512.60;128.00
66831;DHT22;53739;44.224;22.528;2023-02-21T10:58:54;537.90;128.00
66831;DHT22;53739;44.224;22.528;2023-02-21T11:03:59;538.10;128.00
66831;DHT22;53739;44.224;22.528;2023-02-21T11:09:01;538.50;128.00
66831;DHT22;53739;44.224;22.528;2023-02-21T11:11:40;538.50;128.00
66831;DHT22;53739;44.224;22.528;2023-02-21T11:14:27;538.20;128.00
66831;DHT22;53739;44.224;22.528;2023-02-21T11:17:19;538.10;128.00
66831;DHT22;53739;44.224;22.528;2023-02-21T11:20:14;538.00;128.00
66831;DHT22;53739;44.224;22.528;2023-02-21T11:22:46;538.20;128.00
66831;DHT22;53739;44.224;22.528;2023-02-21T11:28:20;538.40;128.00
66831;DHT22;53739;44.224;22.528;2023-02-21T11:33:28;563.30;128.00
66831;DHT22;53739;44.224;22.528;2023-02-21T11:36:09;538.40;128.00
66831;DHT22;53739;44.224;22.528;2023-02-21T11:38:38;538.50;128.00
66831;DHT22;53739;44.224;22.528;2023-02-21T11:41:36;538.50;128.00
66831;DHT22;53739;44.224;22.528;2023-02-21T11:44:02;538.50;128.00
66831;DHT22;53739;44.224;22.528;2023-02-21T11:46:46;538.50;128.00
66831;DHT22;53739;44.224;22.528;2023-02-21T11:54:23;538.50;128.00
66831;DHT22;53739;44.224;22.528;2023-02-21T11:57:03;563.40;128.00
66831;DHT22;53739;44.224;22.528;2023-02-21T12:05:44;563.60;128.00
66831;DHT22;53739;44.224;22.528;2023-02-21T12:08:37;563.60;128.00
66831;DHT22;53739;44.224;22.528;2023-02-21T12:16:50;538.50;128.00
66831;DHT22;53739;44.224;22.528;2023-02-21T12:31:02;563.40;128.00
66831;DHT22;53739;44.224;22.528;2023-02-21T12:33:18;563.50;128.00
66831;DHT22;53739;44.224;22.528;2023-02-21T12:43:53;563.30;128.00
66831;DHT22;53739;44.224;22.528;2023-02-21T12:46:31;563.20;128.00
66831;DHT22;53739;44.224;22.528;2023-02-21T12:49:19;538.50;128.00
66831;DHT22;53739;44.224;22.528;2023-02-21T12:51:52;538.50;128.00
66831;DHT22;53739;44.224;22.528;2023-02-21T12:54:33;563.30;128.00
66831;DHT22;53739;44.224;22.528;2023-02-21T12:57:08;563.30;128.00
66831;DHT22;53739;44.224;22.528;2023-02-21T12:59:50;538.50;128.00
66831;DHT22;53739;44.224;22.528;2023-02-21T13:02:47;538.50;128.00
66831;DHT22;53739;44.224;22.528;2023-02-21T13:05:22;538.40;128.00
66831;DHT22;53739;44.224;22.528;2023-02-21T13:08:00;563.20;128.00
66831;DHT22;53739;44.224;22.528;2023-02-21T13:10:47;538.50;128.00
66831;DHT22;53739;44.224;22.528;2023-02-21T13:13:31;538.40;128.00
66831;DHT22;53739;44.224;22.528;2023-02-21T13:16:00;563.20;128.00
66831;DHT22;53739;44.224;22.528;2023-02-21T13:18:43;563.20;128.00
66831;DHT22;53739;44.224;22.528;2023-02-21T13:29:41;538.50;128.00
66831;DHT22;53739;44.224;22.528;2023-02-21T13:32:08;538.30;128.00
66831;DHT22;53739;44.224;22.528;2023-02-21T13:34:41;538.40;128.00
66831;DHT22;53739;44.224;22.528;2023-02-21T13:37:34;538.30;128.00
66831;DHT22;53739;44.224;22.528;2023-02-21T13:40:04;538.30;128.00
66831;DHT22;53739;44.224;22.528;2023-02-21T13:42:36;538.50;128.00
66831;DHT22;53739;44.224;22.528;2023-02-21T13:55:34;538.00;128.00
66831;DHT22;53739;44.224;22.528;2023-02-21T14:10:53;537.80;128.00
66831;DHT22;53739;44.224;22.528;2023-02-21T14:21:09;537.60;128.00
66831;DHT22;53739;44.224;22.528;2023-02-21T14:39:55;512.40;128.00
66831;DHT22;53739;44.224;22.528;2023-02-21T14:48:13;487.20;128.00
66831;DHT22;53739;44.224;22.528;2023-02-21T15:04:14;487.00;128.00
66831;DHT22;53739;44.224;22.528;2023-02-21T15:06:53;487.00;128.00
66831;DHT22;53739;44.224;22.528;2023-02-21T15:09:20;487.00;128.00
66831;DHT22;53739;44.224;22.528;2023-02-21T15:11:47;487.10;128.00
66831;DHT22;53739;44.224;22.528;2023-02-21T15:14:27;487.00;128.00
66831;DHT22;53739;44.224;22.528;2023-02-21T15:17:18;487.00;128.00
66831;DHT22;53739;44.224;22.528;2023-02-21T15:19:45;487.00;128.00
66831;DHT22;53739;44.224;22.528;2023-02-21T15:22:24;487.00;128.00
66831;DHT22;53739;44.224;22.528;2023-02-21T15:27:37;487.00;128.00
66831;DHT22;53739;44.224;22.528;2023-02-21T15:30:14;486.90;128.00
66831;DHT22;53739;44.224;22.528;2023-02-21T15:32:40;486.80;128.00
66831;DHT22;53739;44.224;22.528;2023-02-21T15:35:13;486.80;128.00
66831;DHT22;53739;44.224;22.528;2023-02-21T15:37:43;486.70;128.00
66831;DHT22;53739;44.224;22.528;2023-02-21T15:40:18;486.60;128.00
66831;DHT22;53739;44.224;22.528;2023-02-21T15:42:46;486.60;128.00
66831;DHT22;53739;44.224;22.528;2023-02-21T15:45:42;486.50;128.00
66831;DHT22;53739;44.224;22.528;2023-02-21T15:48:08;486.50;128.00
66831;DHT22;53739;44.224;22.528;2023-02-21T15:50:38;486.40;128.00
66831;DHT22;53739;44.224;22.528;2023-02-21T15:55:37;461.70;128.00
66831;DHT22;53739;44.224;22.528;2023-02-21T16:00:35;461.60;128.00
66831;DHT22;53739;44.224;22.528;2023-02-21T16:06:43;461.50;128.00
66831;DHT22;53739;44.224;22.528;2023-02-21T16:09:04;461.50;128.00
66831;DHT22;53739;44.224;22.528;2023-02-21T16:11:38;461.40;128.00
66831;DHT22;53739;44.224;22.528;2023-02-21T16:14:05;461.40;128.00
66831;DHT22;53739;44.224;22.528;2023-02-21T16:16:34;461.20;128.00
66831;DHT22;53739;44.224;22.528;2023-02-21T16:19:00;461.20;128.00
66831;DHT22;53739;44.224;22.528;2023-02-21T16:21:31;461.20;128.00
66831;DHT22;53739;44.224;22.528;2023-02-21T16:24:33;461.20;128.00
66831;DHT22;53739;44.224;22.528;2023-02-21T16:27:04;461.10;128.00
66831;DHT22;53739;44.224;22.528;2023-02-21T16:29:30;461.00;128.00
66831;DHT22;53739;44.224;22.528;2023-02-21T16:31:56;461.00;128.00
66831;DHT22;53739;44.224;22.528;2023-02-21T16:34:22;460.80;128.00
66831;DHT22;53739;44.224;22.528;2023-02-21T16:36:49;460.80;128.00
66831;DHT22;53739;44.224;22.528;2023-02-21T16:39:19;460.80;128.00
66831;DHT22;53739;44.224;22.528;2023-02-21T16:41:45;436.10;128.00
66831;DHT22;53739;44.224;22.528;2023-02-21T16:44:11;436.10;128.00
66831;DHT22;53739;44.224;22.528;2023-02-21T16:46:37;436.10;128.00
66831;DHT22;53739;44.224;22.528;2023-02-21T16:49:03;436.10;128.00
66831;DHT22;53739;44.224;22.528;2023-02-21T16:51:28;436.00;128.00
66831;DHT22;53739;44.224;22.528;2023-02-21T16:54:00;436.00;128.00
66831;DHT22;53739;44.224;22.528;2023-02-21T16:56:26;435.90;128.00
66831;DHT22;53739;44.224;22.528;2023-02-21T16:58:55;435.90;128.00
66831;DHT22;53739;44.224;22.528;2023-02-21T17:01:27;435.90;128.00
66831;DHT22;53739;44.224;22.528;2023-02-21T17:03:54;435.90;128.00
66831;DHT22;53739;44.224;22.528;2023-02-21T17:06:22;435.80;128.00
66831;DHT22;53739;44.224;22.528;2023-02-21T17:08:48;435.80;128.00
66831;DHT22;53739;44.224;22.528;2023-02-21T17:11:14;435.70;128.00
66831;DHT22;53739;44.224;22.528;2023-02-21T17:13:39;435.70;128.00
66831;DHT22;53739;44.224;22.528;2023-02-21T17:16:06;435.60;128.00
66831;DHT22;53739;44.224;22.528;2023-02-21T17:18:32;435.60;128.00
66831;DHT22;53739;44.224;22.528;2023-02-21T17:21:00;435.50;128.00
66831;DHT22;53739;44.224;22.528;2023-02-21T17:23:27;435.50;128.00
66831;DHT22;53739;44.224;22.528;2023-02-21T17:25:53;435.40;128.00
66831;DHT22;53739;44.224;22.528;2023-02-21T17:28:18;435.40;128.00
66831;DHT22;53739;44.224;22.528;2023-02-21T17:30:44;435.30;128.00
66831;DHT22;53739;44.224;22.528;2023-02-21T17:33:12;435.30;128.00
66831;DHT22;53739;44.224;22.528;2023-02-21T17:35:38;435.30;128.00
66831;DHT22;53739;44.224;22.528;2023-02-21T17:38:04;435.20;128.00
66831;DHT22;53739;44.224;22.528;2023-02-21T17:40:31;435.20;128.00
66831;DHT22;53739;44.224;22.528;2023-02-21T17:42:57;435.20;128.00
66831;DHT22;53739;44.224;22.528;2023-02-21T17:45:23;410.50;128.00
66831;DHT22;53739;44.224;22.528;2023-02-21T17:47:50;410.50;128.00
66831;DHT22;53739;44.224;22.528;2023-02-21T17:50:19;410.40;128.00
66831;DHT22;53739;44.224;22.528;2023-02-21T17:52:44;410.30;128.00
66831;DHT22;53739;44.224;22.528;2023-02-21T17:55:19;410.20;128.00
66831;DHT22;53739;44.224;22.528;2023-02-21T17:57:45;410.20;128.00
66831;DHT22;53739;44.224;22.528;2023-02-21T18:00:20;410.00;128.00
66831;DHT22;53739;44.224;22.528;2023-02-21T18:02:48;410.00;128.00
66831;DHT22;53739;44.224;22.528;2023-02-21T18:05:14;409.90;128.00
66831;DHT22;53739;44.224;22.528;2023-02-21T18:07:40;409.80;128.00
66831;DHT22;53739;44.224;22.528;2023-02-21T18:10:06;409.80;128.00
66831;DHT22;53739;44.224;22.528;2023-02-21T18:12:32;409.70;128.00
66831;DHT22;53739;44.224;22.528;2023-02-21T18:14:58;409.70;128.00
66831;DHT22;53739;44.224;22.528;2023-02-21T18:17:24;409.70;128.00
66831;DHT22;53739;44.224;22.528;2023-02-21T18:19:50;409.70;128.00
66831;DHT22;53739;44.224;22.528;2023-02-21T18:22:15;409.70;128.00